Hydro, Oklahoma
Current Conditions -  °F | °C
As of 12:55 AM on Thursday 23 Oct 2014 (Local Time) from KOJA Reporting Station
Overcast Overcast  
Wind Chill: 61°   Ceiling: 5000
Heat Index: 61°   Visibility: 10mi
Dew Point: 57°   Wind: 3mph
Humidity: 88%   Direction: 170°S
Pressure: 30.1"   Gusts: NA
Location:  35.55°N, 98.58°W
Report Text: KOJA 230555Z AUTO 17003KT 10SM OVC050 16/14 A3010 RMK AO2
Loading
Personal Weather Stations






























Interactive Weather Map New forecast layout! Learn more

10-Day Weather Forecast

Advertisements
Track Severe Weather on mobile